createdAt,value
2017-12-21T00:00:54.197Z,51.57
2017-12-21T00:03:20.552Z,80.33
2017-12-21T00:05:47.760Z,66.30
2017-12-21T00:08:14.115Z,61.00
2017-12-21T00:10:40.513Z,62.73
2017-12-21T00:13:07.611Z,55.33
2017-12-21T00:15:33.995Z,65.40
2017-12-21T00:18:00.375Z,59.60
2017-12-21T00:20:27.495Z,62.80
2017-12-21T00:22:55.340Z,43.40
2017-12-21T00:25:21.683Z,71.60
2017-12-21T00:27:48.064Z,53.87
2017-12-21T00:30:14.427Z,78.13
2017-12-21T00:32:41.576Z,68.57
2017-12-21T00:35:07.956Z,67.27
2017-12-21T00:37:34.332Z,75.93
2017-12-21T00:40:00.697Z,72.93
2017-12-21T00:42:27.128Z,75.90
2017-12-21T00:44:53.483Z,81.07
2017-12-21T00:47:19.860Z,70.03
2017-12-21T00:49:46.219Z,79.97
2017-12-21T00:52:12.609Z,69.63
2017-12-21T00:54:38.987Z,82.17
2017-12-21T00:57:05.389Z,73.20
2017-12-21T00:59:31.739Z,76.87
2017-12-21T01:01:58.101Z,69.77
2017-12-21T01:04:24.468Z,101.13
2017-12-21T01:06:50.820Z,74.87
2017-12-21T01:09:17.185Z,83.40
2017-12-21T01:11:43.612Z,122.47
2017-12-21T01:14:10.011Z,93.57
2017-12-21T01:16:37.126Z,80.40
2017-12-21T01:19:03.547Z,62.47
2017-12-21T01:21:30.064Z,100.87
2017-12-21T01:23:56.419Z,95.83
2017-12-21T01:26:22.787Z,84.73
2017-12-21T01:28:50.623Z,83.57
2017-12-21T01:31:16.973Z,97.87
2017-12-21T01:33:43.378Z,77.57
2017-12-21T01:36:09.751Z,77.47
2017-12-21T01:38:36.092Z,89.23
2017-12-21T01:41:02.494Z,93.30
2017-12-21T01:43:28.912Z,106.63
2017-12-21T01:45:55.359Z,99.43
2017-12-21T01:48:22.463Z,104.13
2017-12-21T01:50:48.832Z,108.90
2017-12-21T01:53:15.991Z,124.57
2017-12-21T01:55:42.341Z,100.50
2017-12-21T01:58:09.547Z,114.63
2017-12-21T02:00:35.963Z,125.73
2017-12-21T02:03:02.389Z,114.63
2017-12-21T02:05:28.746Z,114.67
2017-12-21T02:07:55.995Z,130.67
2017-12-21T02:10:22.367Z,87.73
2017-12-21T02:12:49.484Z,103.60
2017-12-21T02:15:15.840Z,113.27
2017-12-21T02:17:42.195Z,114.60
2017-12-21T02:20:08.577Z,98.40
2017-12-21T02:22:34.948Z,103.50
2017-12-21T02:25:01.480Z,99.00
2017-12-21T02:27:27.864Z,115.63
2017-12-21T02:29:55.036Z,102.97
2017-12-21T02:32:21.500Z,108.00
2017-12-21T02:34:47.929Z,149.47
2017-12-21T02:37:15.089Z,143.27
2017-12-21T02:39:41.517Z,129.27
2017-12-21T02:42:07.905Z,112.20
2017-12-21T02:44:34.296Z,117.63
2017-12-21T02:47:02.199Z,128.93
2017-12-21T02:49:28.605Z,103.57
2017-12-21T02:51:56.512Z,121.50
2017-12-21T02:54:22.911Z,112.50
2017-12-21T02:56:49.287Z,99.57
2017-12-21T02:59:15.660Z,137.63
2017-12-21T03:01:42.803Z,116.97
2017-12-21T03:04:10.679Z,138.60
2017-12-21T03:06:37.848Z,136.83
2017-12-21T03:09:04.672Z,114.23
2017-12-21T03:11:31.063Z,131.87
2017-12-21T03:13:57.447Z,124.53
2017-12-21T03:16:23.828Z,146.57
2017-12-21T03:18:51.792Z,95.27
2017-12-21T03:21:18.159Z,108.17
2017-12-21T03:23:46.046Z,103.97
2017-12-21T03:26:12.447Z,101.83
2017-12-21T03:28:38.840Z,95.23
2017-12-21T03:31:05.966Z,94.00
2017-12-21T03:33:33.154Z,98.43
2017-12-21T03:35:59.527Z,94.33
2017-12-21T03:38:25.934Z,82.73
2017-12-21T03:40:52.284Z,93.80
2017-12-21T03:43:19.387Z,100.70
2017-12-21T03:45:45.783Z,81.47
2017-12-21T03:48:12.153Z,81.03
2017-12-21T03:50:39.303Z,71.20
2017-12-21T03:53:06.431Z,69.07
2017-12-21T03:55:32.823Z,89.33
2017-12-21T03:57:59.347Z,87.70
2017-12-21T04:00:26.515Z,70.73
2017-12-21T04:02:52.852Z,85.13
2017-12-21T04:05:19.979Z,86.47
2017-12-21T04:07:46.348Z,81.87
2017-12-21T04:10:13.539Z,77.40
2017-12-21T04:12:40.620Z,88.47
2017-12-21T04:15:07.051Z,98.03
2017-12-21T04:17:33.442Z,89.97
2017-12-21T04:19:59.867Z,90.03
2017-12-21T04:22:26.252Z,101.43
2017-12-21T04:24:52.575Z,125.73
2017-12-21T04:27:18.976Z,104.73
2017-12-21T04:29:45.379Z,123.57
2017-12-21T04:32:11.767Z,109.03
2017-12-21T04:34:38.183Z,126.90
2017-12-21T04:37:04.855Z,128.33
2017-12-21T04:39:31.971Z,131.87
2017-12-21T04:41:58.377Z,138.00
2017-12-21T04:44:24.748Z,107.80
2017-12-21T04:46:51.157Z,109.33
2017-12-21T04:49:17.620Z,121.50
2017-12-21T04:51:43.988Z,160.03
2017-12-21T04:54:11.941Z,124.30
2017-12-21T04:56:38.338Z,142.10
2017-12-21T04:59:05.445Z,180.00
2017-12-21T05:01:31.846Z,117.10
2017-12-21T05:03:58.944Z,137.03
2017-12-21T05:06:25.324Z,148.60
2017-12-21T05:08:52.432Z,155.83
2017-12-21T05:11:19.524Z,147.07
2017-12-21T05:13:45.930Z,164.13
2017-12-21T05:16:13.430Z,168.47
2017-12-21T05:18:39.791Z,134.33
2017-12-21T05:21:06.395Z,172.50
2017-12-21T05:23:33.519Z,145.67
2017-12-21T05:25:59.977Z,149.83
2017-12-21T05:28:26.372Z,144.30
2017-12-21T05:30:52.739Z,159.20
2017-12-21T05:33:19.213Z,133.33
2017-12-21T05:35:45.571Z,168.80
2017-12-21T05:38:11.982Z,147.43
2017-12-21T05:40:38.371Z,161.37
2017-12-21T05:43:04.747Z,153.00
2017-12-21T05:45:32.590Z,155.73
2017-12-21T05:47:58.946Z,139.83
2017-12-21T05:50:25.360Z,135.80
2017-12-21T05:52:51.856Z,139.10
2017-12-21T05:55:18.232Z,146.20
2017-12-21T05:57:44.664Z,147.87
2017-12-21T06:00:12.164Z,126.97
2017-12-21T06:02:38.535Z,135.10
2017-12-21T06:05:04.988Z,131.00
2017-12-21T06:07:31.379Z,109.07
2017-12-21T06:09:57.759Z,103.77
2017-12-21T06:12:24.471Z,112.27
2017-12-21T06:14:50.856Z,100.17
2017-12-21T06:17:17.279Z,100.80
2017-12-21T06:19:43.766Z,126.20
2017-12-21T06:22:11.208Z,119.33
2017-12-21T06:24:37.590Z,112.60
2017-12-21T06:27:04.082Z,126.67
2017-12-21T06:29:30.455Z,115.40
2017-12-21T06:31:58.335Z,104.30
2017-12-21T06:34:24.723Z,107.53
2017-12-21T06:36:51.083Z,121.77
2017-12-21T06:39:18.219Z,110.93
2017-12-21T06:41:45.336Z,111.70
2017-12-21T06:44:11.690Z,111.20
2017-12-21T06:46:38.896Z,99.33
2017-12-21T06:49:05.239Z,105.60
2017-12-21T06:51:32.335Z,96.57
2017-12-21T06:53:58.693Z,93.10
2017-12-21T06:56:25.144Z,83.23
2017-12-21T06:58:51.627Z,89.27
2017-12-21T07:01:18.036Z,89.00
2017-12-21T07:03:44.455Z,75.97
2017-12-21T07:06:12.044Z,96.17
2017-12-21T07:08:38.483Z,86.33
2017-12-21T07:11:04.981Z,97.27
2017-12-21T07:13:31.442Z,100.57
2017-12-21T07:15:59.567Z,100.17
2017-12-21T07:18:33.161Z,115.50
2017-12-21T07:21:00.392Z,102.00
2017-12-21T07:23:26.991Z,97.37
2017-12-21T07:25:54.250Z,110.60
2017-12-21T07:28:22.656Z,97.47
2017-12-21T07:30:50.042Z,94.27
2017-12-21T07:33:16.514Z,108.13
2017-12-21T07:35:43.358Z,77.63
2017-12-21T07:38:10.680Z,86.10
2017-12-21T07:40:37.726Z,87.90
2017-12-21T07:43:06.442Z,85.77
2017-12-21T07:45:33.791Z,74.43
2017-12-21T07:48:00.649Z,75.30
2017-12-21T07:50:28.896Z,92.07
2017-12-21T07:52:55.435Z,70.10
2017-12-21T07:55:22.710Z,82.90
2017-12-21T07:57:51.878Z,79.63
2017-12-21T08:00:18.248Z,63.27
2017-12-21T08:02:44.762Z,90.73
2017-12-21T08:05:11.997Z,64.27
2017-12-21T08:07:38.512Z,68.67
2017-12-21T08:10:05.796Z,67.00
2017-12-21T08:12:33.630Z,67.57
2017-12-21T08:15:00.259Z,67.63
2017-12-21T08:17:27.429Z,86.50
2017-12-21T08:19:54.024Z,64.17
2017-12-21T08:22:20.766Z,55.70
2017-12-21T08:24:50.659Z,50.07
2017-12-21T08:27:17.684Z,57.13
2017-12-21T08:29:45.125Z,50.20
2017-12-21T08:32:12.297Z,54.87
2017-12-21T08:34:38.872Z,55.33
2017-12-21T08:37:05.705Z,58.10
2017-12-21T08:39:32.713Z,40.87
2017-12-21T08:41:59.829Z,52.90
2017-12-21T08:44:27.629Z,39.43
2017-12-21T08:46:54.496Z,42.07
2017-12-21T08:49:23.428Z,41.60
2017-12-21T08:51:51.368Z,35.00
2017-12-21T08:54:18.135Z,36.30
2017-12-21T08:56:44.585Z,42.83
2017-12-21T08:59:11.027Z,47.10
2017-12-21T09:01:38.218Z,42.50
2017-12-21T09:04:05.029Z,42.47
2017-12-21T09:06:32.316Z,51.37
2017-12-21T09:08:59.231Z,50.93
2017-12-21T09:11:25.728Z,41.70
2017-12-21T09:13:52.132Z,50.87
2017-12-21T09:16:18.518Z,60.33
2017-12-21T09:18:45.038Z,48.97
2017-12-21T09:21:13.382Z,54.90
2017-12-21T09:23:40.145Z,46.43
2017-12-21T09:26:06.731Z,46.80
2017-12-21T09:28:33.292Z,50.43
2017-12-21T09:31:00.532Z,52.60
2017-12-21T09:33:27.141Z,58.13
2017-12-21T09:35:53.967Z,42.83
2017-12-21T09:38:20.529Z,57.70
2017-12-21T09:40:50.812Z,36.97
2017-12-21T09:43:17.445Z,44.63
2017-12-21T09:45:44.424Z,52.33
2017-12-21T09:48:11.323Z,53.23
2017-12-21T09:50:38.620Z,39.20
2017-12-21T09:53:05.683Z,45.17
2017-12-21T09:55:32.121Z,47.20
2017-12-21T09:57:59.732Z,37.27
2017-12-21T10:00:26.201Z,44.30
2017-12-21T10:02:55.621Z,52.70
2017-12-21T10:05:23.845Z,47.03
2017-12-21T10:07:51.132Z,40.53
2017-12-21T10:10:17.710Z,47.17
2017-12-21T10:12:45.269Z,47.80
2017-12-21T10:15:11.889Z,50.03
2017-12-21T10:17:40.275Z,52.87
2017-12-21T10:20:06.660Z,50.37
2017-12-21T10:22:33.098Z,48.83
2017-12-21T10:24:59.487Z,60.57
2017-12-21T10:27:26.694Z,48.13
2017-12-21T10:29:53.252Z,43.93
2017-12-21T10:32:19.871Z,53.97
2017-12-21T10:34:47.117Z,45.33
2017-12-21T10:37:13.527Z,58.53
2017-12-21T10:39:40.051Z,52.80
2017-12-21T10:42:06.431Z,43.53
2017-12-21T10:44:32.856Z,39.90
2017-12-21T10:46:59.280Z,52.00
2017-12-21T10:49:25.751Z,46.57
2017-12-21T10:51:52.402Z,43.23
2017-12-21T10:54:18.788Z,38.83
2017-12-21T10:56:45.239Z,30.97
2017-12-21T10:59:11.761Z,38.20
2017-12-21T11:01:38.504Z,41.77
2017-12-21T11:04:05.199Z,35.33
2017-12-21T11:06:31.700Z,41.03
2017-12-21T11:08:58.186Z,50.77
2017-12-21T11:11:25.397Z,34.20
2017-12-21T11:13:52.598Z,34.53
2017-12-21T11:16:19.067Z,40.70
2017-12-21T11:18:45.587Z,43.07
2017-12-21T11:21:12.913Z,47.53
2017-12-21T11:23:39.660Z,42.27
2017-12-21T11:26:06.137Z,53.23
2017-12-21T11:28:32.558Z,42.93
2017-12-21T11:30:58.984Z,52.80
2017-12-21T11:33:25.500Z,38.43
2017-12-21T11:35:52.700Z,43.13
2017-12-21T11:38:19.155Z,41.40
2017-12-21T11:40:45.588Z,39.80
2017-12-21T11:43:12.001Z,46.33
2017-12-21T11:45:38.405Z,42.00
2017-12-21T11:48:05.073Z,48.63
2017-12-21T11:50:32.253Z,47.73
2017-12-21T11:52:59.434Z,52.40
2017-12-21T11:55:25.979Z,57.50
2017-12-21T11:57:52.463Z,50.27
2017-12-21T12:00:19.657Z,42.60
2017-12-21T12:02:46.351Z,53.80
2017-12-21T12:05:14.626Z,55.17
2017-12-21T12:07:42.238Z,56.27
2017-12-21T12:10:08.956Z,62.27
2017-12-21T12:12:36.141Z,53.27
2017-12-21T12:15:03.413Z,50.80
2017-12-21T12:20:23.597Z,54.27
2017-12-21T12:22:51.026Z,50.83
2017-12-21T12:25:17.968Z,52.50
2017-12-21T12:27:44.472Z,56.17
2017-12-21T12:30:11.754Z,49.17
2017-12-21T12:32:38.252Z,56.20
2017-12-21T12:35:04.710Z,47.17
2017-12-21T12:37:31.154Z,56.80
2017-12-21T12:39:57.757Z,46.10
2017-12-21T12:42:24.923Z,56.93
2017-12-21T12:44:51.398Z,50.13
2017-12-21T12:47:18.085Z,58.47
2017-12-21T12:49:45.288Z,52.60
2017-12-21T12:52:12.074Z,58.13
2017-12-21T12:54:41.521Z,52.87
2017-12-21T12:57:07.923Z,49.13
2017-12-21T12:59:34.432Z,48.40
2017-12-21T13:02:00.938Z,58.83
2017-12-21T13:04:27.364Z,58.63
2017-12-21T13:06:53.854Z,54.90
2017-12-21T13:09:20.299Z,50.37
2017-12-21T13:11:46.751Z,60.07
2017-12-21T13:14:13.168Z,52.80
2017-12-21T13:16:41.440Z,58.90
2017-12-21T13:19:08.620Z,59.47
2017-12-21T13:21:35.838Z,63.73
2017-12-21T13:24:02.518Z,62.40
2017-12-21T13:26:29.391Z,55.90
2017-12-21T13:28:55.834Z,60.23
2017-12-21T13:31:22.346Z,62.37
2017-12-21T13:33:48.783Z,83.43
2017-12-21T13:36:15.217Z,74.70
2017-12-21T13:38:41.708Z,68.53
2017-12-21T13:41:08.127Z,73.00
2017-12-21T13:43:35.821Z,74.03
2017-12-21T13:46:02.525Z,73.43
2017-12-21T13:48:28.955Z,62.73
2017-12-21T13:50:55.649Z,65.73
2017-12-21T13:53:22.167Z,55.30
2017-12-21T13:55:49.436Z,67.33
2017-12-21T13:58:15.865Z,64.23
2017-12-21T14:00:42.309Z,77.27
2017-12-21T14:03:09.466Z,77.97
2017-12-21T14:05:36.608Z,74.80
2017-12-21T14:08:03.270Z,77.67
2017-12-21T14:10:29.936Z,69.00
2017-12-21T14:12:57.421Z,89.60
2017-12-21T14:15:24.571Z,94.37
2017-12-21T14:17:51.780Z,84.10
2017-12-21T14:20:18.911Z,83.07
2017-12-21T14:22:45.320Z,74.87
2017-12-21T14:25:11.774Z,94.67
2017-12-21T14:27:38.924Z,72.20
2017-12-21T14:30:05.666Z,65.43
2017-12-21T14:32:32.107Z,62.50
2017-12-21T14:34:58.519Z,70.83
2017-12-21T14:37:24.983Z,58.40
2017-12-21T14:39:51.558Z,55.33
2017-12-21T14:42:18.048Z,80.37
2017-12-21T14:44:44.469Z,67.30
2017-12-21T14:47:10.918Z,57.77
2017-12-21T14:49:38.100Z,66.40
2017-12-21T14:52:05.279Z,65.83
2017-12-21T14:54:31.672Z,63.90
2017-12-21T14:56:58.756Z,63.80
2017-12-21T14:59:25.883Z,67.03
2017-12-21T15:01:55.202Z,72.80
2017-12-21T15:04:21.663Z,64.57
2017-12-21T15:06:48.078Z,67.30
2017-12-21T15:09:14.503Z,72.87
2017-12-21T15:11:41.064Z,73.67
2017-12-21T15:14:07.667Z,87.90
2017-12-21T15:16:34.168Z,65.40
2017-12-21T15:19:01.651Z,93.70
2017-12-21T15:21:28.152Z,77.53
2017-12-21T15:23:54.763Z,86.17
2017-12-21T15:26:21.254Z,106.13
2017-12-21T15:28:47.893Z,95.53
2017-12-21T15:31:15.167Z,109.97
2017-12-21T15:33:41.649Z,107.17
2017-12-21T15:36:08.129Z,114.43
2017-12-21T15:38:35.252Z,100.53
2017-12-21T15:41:06.566Z,120.67
2017-12-21T15:43:34.901Z,128.07
2017-12-21T15:46:01.286Z,126.67
2017-12-21T15:48:28.481Z,96.23
2017-12-21T15:50:54.896Z,138.53
2017-12-21T15:53:21.279Z,141.33
2017-12-21T15:55:47.747Z,139.53
2017-12-21T15:58:14.121Z,172.97
2017-12-21T16:00:40.555Z,144.50
2017-12-21T16:03:07.101Z,146.53
2017-12-21T16:05:34.260Z,145.77
2017-12-21T16:08:00.666Z,164.27
2017-12-21T16:10:27.091Z,149.83
2017-12-21T16:12:54.236Z,162.00
2017-12-21T16:15:20.615Z,147.27
2017-12-21T16:17:47.058Z,152.90
2017-12-21T16:20:13.507Z,145.47
2017-12-21T16:22:39.912Z,164.30
2017-12-21T16:25:06.336Z,162.83
2017-12-21T16:27:32.723Z,154.83
2017-12-21T16:29:59.828Z,120.23
2017-12-21T16:32:26.216Z,145.20
2017-12-21T16:34:52.620Z,118.93
2017-12-21T16:37:19.013Z,145.07
2017-12-21T16:39:45.379Z,146.67
2017-12-21T16:42:11.800Z,160.30
2017-12-21T16:44:38.903Z,160.57
2017-12-21T16:47:05.271Z,164.50
2017-12-21T16:49:31.700Z,173.70
2017-12-21T16:51:58.080Z,125.57
2017-12-21T16:54:25.179Z,158.87
2017-12-21T16:56:51.595Z,155.30
2017-12-21T16:59:17.992Z,177.73
2017-12-21T17:01:44.404Z,171.27
2017-12-21T17:04:10.949Z,144.40
2017-12-21T17:06:37.389Z,174.50
2017-12-21T17:09:03.775Z,155.00
2017-12-21T17:11:30.193Z,145.47
2017-12-21T17:13:56.582Z,165.13
2017-12-21T17:16:22.996Z,140.53
2017-12-21T17:18:50.116Z,191.50
2017-12-21T17:21:16.503Z,162.93
2017-12-21T17:23:42.854Z,153.13
2017-12-21T17:26:10.004Z,136.47
2017-12-21T17:28:36.427Z,138.30
2017-12-21T17:31:02.861Z,140.17
2017-12-21T17:33:29.284Z,172.93
2017-12-21T17:35:55.631Z,150.90
2017-12-21T17:38:22.070Z,189.97
2017-12-21T17:40:48.475Z,160.73
2017-12-21T17:43:14.880Z,159.40
2017-12-21T17:45:41.328Z,153.23
2017-12-21T17:48:07.775Z,179.13
2017-12-21T17:50:34.160Z,197.57
2017-12-21T17:53:00.567Z,173.67
2017-12-21T17:55:26.956Z,159.10
2017-12-21T17:57:53.363Z,145.20
2017-12-21T18:00:19.822Z,189.77
2017-12-21T18:02:47.003Z,135.97
2017-12-21T18:05:13.397Z,160.73
2017-12-21T18:07:39.791Z,174.77
2017-12-21T18:10:06.486Z,163.83
2017-12-21T18:12:32.864Z,160.03
2017-12-21T18:14:59.291Z,152.50
2017-12-21T18:17:25.814Z,121.17
2017-12-21T18:19:52.280Z,121.57
2017-12-21T18:22:18.714Z,131.07
2017-12-21T18:24:45.093Z,181.10
2017-12-21T18:27:11.624Z,215.90
2017-12-21T18:29:38.011Z,176.10
2017-12-21T18:32:04.810Z,202.53
2017-12-21T18:34:31.278Z,205.07
2017-12-21T18:36:57.743Z,208.30
2017-12-21T18:39:24.196Z,177.47
2017-12-21T18:41:51.351Z,169.33
2017-12-21T18:44:17.750Z,187.60
2017-12-21T18:46:44.181Z,173.47
2017-12-21T18:49:10.560Z,203.10
2017-12-21T18:51:36.948Z,140.97
2017-12-21T18:54:04.587Z,172.33
2017-12-21T18:56:30.956Z,157.80
2017-12-21T18:58:58.159Z,170.03
2017-12-21T19:01:24.589Z,162.13
2017-12-21T19:03:51.077Z,131.37
2017-12-21T19:06:17.584Z,103.63
2017-12-21T19:08:44.715Z,134.87
2017-12-21T19:11:11.898Z,128.43
2017-12-21T19:13:38.351Z,153.40
2017-12-21T19:16:04.899Z,152.10
2017-12-21T19:18:31.313Z,123.37
2017-12-21T19:20:58.448Z,135.20
2017-12-21T19:23:25.160Z,148.77
2017-12-21T19:25:51.631Z,158.30
2017-12-21T19:28:18.062Z,133.83
2017-12-21T19:30:44.540Z,128.17
2017-12-21T19:33:11.158Z,132.67
2017-12-21T19:35:37.654Z,95.80
2017-12-21T19:38:04.665Z,99.77
2017-12-21T19:40:31.123Z,133.67
2017-12-21T19:42:57.550Z,126.83
2017-12-21T19:45:23.995Z,149.00
2017-12-21T19:47:50.434Z,140.53
2017-12-21T19:50:16.877Z,120.80
2017-12-21T19:52:43.267Z,109.60
2017-12-21T19:55:09.783Z,133.10
2017-12-21T19:57:36.172Z,123.87
2017-12-21T20:00:02.808Z,111.27
2017-12-21T20:02:29.226Z,114.17
2017-12-21T20:04:55.651Z,103.77
2017-12-21T20:07:22.094Z,118.37
2017-12-21T20:09:48.530Z,118.23
2017-12-21T20:12:14.923Z,105.17
2017-12-21T20:14:41.444Z,138.30
2017-12-21T20:17:07.935Z,107.07
2017-12-21T20:19:34.390Z,97.67
2017-12-21T20:22:01.604Z,113.97
2017-12-21T20:24:28.061Z,118.10
2017-12-21T20:26:54.476Z,117.60
2017-12-21T20:29:20.903Z,119.33
2017-12-21T20:31:47.313Z,110.40
2017-12-21T20:34:13.753Z,107.63
2017-12-21T20:36:40.140Z,139.57
2017-12-21T20:39:07.246Z,156.90
2017-12-21T20:41:33.673Z,145.07
2017-12-21T20:44:00.071Z,131.83
2017-12-21T20:46:27.299Z,124.63
2017-12-21T20:48:53.842Z,139.97
2017-12-21T20:51:21.837Z,146.30
2017-12-21T20:53:48.320Z,107.90
2017-12-21T20:56:15.495Z,118.40
2017-12-21T20:58:42.703Z,133.63
2017-12-21T21:01:09.125Z,135.57
2017-12-21T21:03:35.555Z,158.07
2017-12-21T21:06:02.075Z,136.17
2017-12-21T21:08:28.529Z,140.37
2017-12-21T21:10:55.006Z,145.00
2017-12-21T21:13:21.423Z,140.20
2017-12-21T21:15:47.954Z,120.23
2017-12-21T21:18:14.582Z,135.30
2017-12-21T21:20:41.036Z,117.87
2017-12-21T21:23:07.484Z,104.83
2017-12-21T21:25:34.687Z,106.63
2017-12-21T21:28:01.175Z,99.97
2017-12-21T21:30:28.423Z,103.60
2017-12-21T21:32:54.823Z,106.63
2017-12-21T21:35:22.011Z,87.93
2017-12-21T21:37:48.424Z,123.73
2017-12-21T21:40:15.859Z,97.10
2017-12-21T21:42:42.306Z,86.30
2017-12-21T21:45:08.759Z,102.73
2017-12-21T21:47:35.297Z,114.43
2017-12-21T21:50:01.950Z,117.80
2017-12-21T21:52:29.171Z,106.00
2017-12-21T21:54:55.673Z,94.77
2017-12-21T21:57:22.175Z,93.50
2017-12-21T21:59:49.389Z,87.53
2017-12-21T22:02:15.910Z,76.13
2017-12-21T22:04:42.296Z,85.20
2017-12-21T22:07:09.554Z,98.27
2017-12-21T22:09:35.969Z,73.53
2017-12-21T22:12:02.617Z,80.70
2017-12-21T22:14:29.069Z,83.83
2017-12-21T22:16:55.487Z,80.70
2017-12-21T22:19:21.951Z,67.90
2017-12-21T22:21:49.151Z,86.90
2017-12-21T22:24:16.303Z,66.73
2017-12-21T22:26:42.704Z,91.27
2017-12-21T22:29:09.129Z,83.43
2017-12-21T22:31:35.642Z,65.73
2017-12-21T22:34:03.282Z,82.40
2017-12-21T22:36:29.811Z,73.80
2017-12-21T22:38:56.258Z,89.60
2017-12-21T22:41:22.695Z,69.30
2017-12-21T22:43:49.123Z,81.20
2017-12-21T22:46:16.235Z,59.27
2017-12-21T22:48:42.615Z,64.20
2017-12-21T22:51:09.805Z,68.80
2017-12-21T22:53:36.225Z,75.70
2017-12-21T22:56:03.192Z,77.60
2017-12-21T22:58:29.670Z,65.83
2017-12-21T23:00:56.078Z,70.33
2017-12-21T23:03:23.246Z,91.47
2017-12-21T23:05:50.428Z,83.17
2017-12-21T23:08:16.815Z,91.87
2017-12-21T23:10:43.236Z,77.73
2017-12-21T23:13:09.709Z,101.10
2017-12-21T23:15:36.123Z,74.47
2017-12-21T23:18:02.883Z,83.87
2017-12-21T23:20:29.365Z,75.53
2017-12-21T23:22:55.781Z,100.47
2017-12-21T23:25:22.284Z,81.73
2017-12-21T23:27:48.686Z,114.93
2017-12-21T23:30:15.853Z,79.77
2017-12-21T23:32:42.290Z,94.60
2017-12-21T23:35:08.667Z,139.87
2017-12-21T23:37:35.130Z,122.07
2017-12-21T23:40:01.559Z,170.07
2017-12-21T23:42:27.988Z,102.63
2017-12-21T23:44:54.371Z,80.30
2017-12-21T23:47:20.847Z,133.80
2017-12-21T23:49:47.372Z,122.23
2017-12-21T23:52:13.813Z,122.97
2017-12-21T23:54:40.192Z,119.43
2017-12-21T23:57:08.142Z,115.20
2017-12-21T23:59:34.553Z,116.53
